Terminal Aerodrome Forecast
Issued by NWS

Home | Current Version | Previous Version | Text Only | Print | Product List | Glossary On
Versions: 1 2 3 4 5 6 7 8 9 10 11 12 13 14 15 16 17 18 19 20 21 22 23 24 25
000
FTUS41 KGYX 071735
TAFHIE
TAF
KHIE 071735Z 0718/0818 VRB03KT P6SM SCT050 BKN080
     FM080200 20005KT 4SM BR OVC050
     FM080800 19007KT 2SM -SHRA BR OVC015
     FM081200 32006KT 6SM HZ OVC015
     FM081400 32009KT P6SM OVC050=

USA.gov is the U.S. government's official web portal to all federal, state and local government web resources and services.